Main page
METAR-TAF:

METAR-TAF

Airports :

Ely Municipal Airport

Ely, Minnesota, United States

latitude: 47-49N, longitude: 091-50W, elevation: 443 m

Current weather observation

The report was made 26 minutes ago, at 02:55 UTC
Wind 8 kt from the South with gusts up to 16 kt
Temperature 16°C
Humidity 77%
Pressure 1012 hPa
Visibility: 16.1 km
Scattered clouds at a height of 2100 ft
Overcast at a height of 3900 ft

METAR: KELO 160255Z AUTO 17008G16KT 10SM SCT021 OVC039 16/12 A2988 RMK AO2

Time: 22:21 (03:21 UTC)


TAF: missing

Weather observations and forecasts of more than 4000 airports (METAR and TAF reports).

The available stations are represented by yellow and red dots on the map.

Hover mouse over dot to see the name of the station.

Then click to see weather observations and forecasts.

To change the map : click on the green buttons with a black cross to zoom in, on the green button with a dash to zoom out, or on the green arrows for adjacent maps.


METAR-TAF: